This is the latest recevied weather packets stored in our database for station/object WI5ARD. If no packets are shown the sender has not sent any weather packets the latest 10 day(s).
| Time | Temp. | Humidity | Pressure | Rain* | Wind** | Luminosity | Snow |
|---|---|---|---|---|---|---|---|
| 1777796419 | 10° C | 85% | 1021.8 hPa | 0 mm | - | 0 W/m² | - |
| 1777796144 | 10° C | 85% | 1021.8 hPa | 0 mm | - | 0 W/m² | - |
| 1777793439 | 10.56° C | 83% | 1021.4 hPa | 0 mm | - | 0 W/m² | - |
| 1777792545 | 11.11° C | 82% | 1021.3 hPa | 0 mm | - | 0 W/m² | - |
| 1777791020 | 11.67° C | 79% | 1021.2 hPa | 0 mm | - | 0 W/m² | - |
| 1777790738 | 11.67° C | 79% | 1021.2 hPa | 0 mm | - | 0 W/m² | - |
| 1777790120 | 12.22° C | 78% | 1021.1 hPa | 0 mm | - | 0 W/m² | - |
| 1777789219 | 12.22° C | 76% | 1021 hPa | 0 mm | - | 0 W/m² | - |
| 1777787720 | 12.78° C | 75% | 1021.3 hPa | 0 mm | - | 0 W/m² | - |
| 1777784119 | 13.89° C | 72% | 1021.1 hPa | 0 mm | - | 0 W/m² | - |
| 1777782922 | 13.89° C | 71% | 1021 hPa | 0 mm | - | 0 W/m² | - |
| 1777782022 | 14.44° C | 70% | 1020.7 hPa | 0 mm | - | 0 W/m² | - |
| 1777780835 | 14.44° C | 69% | 1020.8 hPa | 0 mm | - | 0 W/m² | - |
| 1777779621 | 15° C | 68% | 1020.7 hPa | 0 mm | - | 0 W/m² | - |
| 1777778137 | 15.56° C | 66% | 1020.7 hPa | 0 mm | - | 0 W/m² | - |
| 1777776340 | 15.56° C | 68% | 1020.3 hPa | 0 mm | - | 0 W/m² | - |
| 1777776021 | 15.56° C | 67% | 1020.2 hPa | 0 mm | - | 0 W/m² | - |
| 1777774219 | 16.11° C | 64% | 1019.7 hPa | 0 mm | - | 0 W/m² | - |
| 1777773919 | 16.67° C | 63% | 1019.7 hPa | 0 mm | - | 0 W/m² | - |
| 1777771222 | 17.78° C | 58% | 1019.3 hPa | 0 mm | - | 0 W/m² | - |
| 1777770621 | 17.78° C | 58% | 1019.2 hPa | 0 mm | - | 0 W/m² | - |
| 1777767620 | 20° C | 53% | 1018.6 hPa | 0 mm | - | 14 W/m² | - |
| 1777767022 | 20° C | 52% | 1018.5 hPa | 0 mm | - | 19 W/m² | - |
| 1777764019 | 21.67° C | 45% | 1017.9 hPa | 0 mm | - | 232 W/m² | - |
| 1777762837 | 22.22° C | 45% | 1017.6 hPa | 0 mm | - | 309 W/m² | - |
* Rain latest hour (hover to see other rain measurements)
** Current wind speed in m/s (hover to see current wind gust speed)